Time;durP1;ratioP1;P1;durP2;ratioP2;P2;SDS_P1;SDS_P2;PMS_P1;PMS_P2;Temp;Humidity;BMP_temperature;BMP_pressure;BME280_temperature;BME280_humidity;BME280_pressure;Samples;Min_cycle;Max_cycle;Signal;HPM_P1;HPM_P2
2022/07/19 00:02:29;;;;;;;13.77;6.22;;;;;;;;;;6198263;28;20299;-78
2022/07/19 00:05:29;;;;;;;13.35;5.88;;;;;;;;;;6199366;28;20049;-78
2022/07/19 00:08:30;;;;;;;14.87;5.80;;;;;;;;;;6195836;28;20450;-78
2022/07/19 00:11:30;;;;;;;14.43;5.90;;;;;;;;;;6196297;28;20892;-78
2022/07/19 00:14:30;;;;;;;11.35;5.45;;;;;;;;;;6198730;28;20254;-78
2022/07/19 00:17:30;;;;;;;16.42;5.85;;;;;;;;;;6196800;28;20034;-78
2022/07/19 00:20:30;;;;;;;12.70;5.10;;;;;;;;;;6202614;28;20474;-78
2022/07/19 00:23:31;;;;;;;10.53;4.90;;;;;;;;;;6201203;28;20277;-78
2022/07/19 00:26:31;;;;;;;16.97;5.50;;;;;;;;;;6199860;28;21006;-78
2022/07/19 00:29:31;;;;;;;11.80;5.22;;;;;;;;;;6197076;28;20466;-78
2022/07/19 00:32:32;;;;;;;13.03;5.93;;;;;;;;;;6215487;28;20018;-78
2022/07/19 00:35:32;;;;;;;13.23;6.18;;;;;;;;;;6198066;28;20054;-78
2022/07/19 00:38:32;;;;;;;15.83;5.83;;;;;;;;;;6189043;28;20553;-78
2022/07/19 00:41:37;;;;;;;16.50;7.15;;;;;;;;;;6212021;28;20261;-78
2022/07/19 00:44:38;;;;;;;12.90;6.78;;;;;;;;;;6195585;28;20030;-78
2022/07/19 00:47:38;;;;;;;15.18;5.97;;;;;;;;;;6195722;28;20045;-78
2022/07/19 00:50:38;;;;;;;14.88;7.28;;;;;;;;;;6195876;28;20441;-78
2022/07/19 00:53:39;;;;;;;13.37;4.87;;;;;;;;;;6197052;28;20381;-78
2022/07/19 00:56:40;;;;;;;13.25;6.22;;;;;;;;;;6196566;28;20292;-78
2022/07/19 00:59:41;;;;;;;12.05;5.13;;;;;;;;;;6195335;28;20034;-78
2022/07/19 01:02:41;;;;;;;14.18;5.63;;;;;;;;;;6200423;28;20050;-78
2022/07/19 01:05:41;;;;;;;14.30;6.20;;;;;;;;;;6196602;28;20124;-78
2022/07/19 01:08:41;;;;;;;15.30;6.22;;;;;;;;;;6200423;28;20300;-78
2022/07/19 01:11:42;;;;;;;14.27;6.63;;;;;;;;;;6195503;28;20010;-78
2022/07/19 01:14:42;;;;;;;14.27;6.07;;;;;;;;;;6217301;28;20261;-78
2022/07/19 01:17:43;;;;;;;16.98;6.90;;;;;;;;;;6201371;28;20022;-78
2022/07/19 01:20:43;;;;;;;14.63;6.20;;;;;;;;;;6202954;28;20018;-78
2022/07/19 01:23:43;;;;;;;13.00;6.18;;;;;;;;;;6202559;28;20485;-78
2022/07/19 01:26:43;;;;;;;11.07;5.28;;;;;;;;;;6203224;28;20068;-78
2022/07/19 01:29:44;;;;;;;18.17;8.73;;;;;;;;;;6199019;28;20086;-78
2022/07/19 01:32:45;;;;;;;14.13;6.40;;;;;;;;;;6203246;28;20010;-78
2022/07/19 01:35:45;;;;;;;9.50;4.93;;;;;;;;;;6202295;28;20121;-78
2022/07/19 01:38:45;;;;;;;12.83;5.97;;;;;;;;;;6200136;28;20040;-78
2022/07/19 01:41:45;;;;;;;10.83;5.10;;;;;;;;;;6199400;28;20637;-78
2022/07/19 01:44:45;;;;;;;14.87;7.47;;;;;;;;;;6195417;28;20030;-79
2022/07/19 01:47:46;;;;;;;18.23;6.37;;;;;;;;;;6221327;28;20321;-78
2022/07/19 01:50:47;;;;;;;13.30;6.20;;;;;;;;;;6200663;28;20017;-78
2022/07/19 01:53:47;;;;;;;12.30;6.45;;;;;;;;;;6198725;28;20014;-78
2022/07/19 01:56:47;;;;;;;14.60;4.83;;;;;;;;;;6198184;28;20262;-78
2022/07/19 01:59:47;;;;;;;10.77;6.30;;;;;;;;;;6207993;28;20257;-78
2022/07/19 02:02:47;;;;;;;13.67;6.40;;;;;;;;;;6201122;28;20025;-78
2022/07/19 02:05:47;;;;;;;13.57;6.20;;;;;;;;;;6197921;28;20801;-78
2022/07/19 02:08:48;;;;;;;16.92;5.30;;;;;;;;;;6200664;28;20401;-78
2022/07/19 02:11:48;;;;;;;9.63;5.23;;;;;;;;;;6197380;28;20026;-78
2022/07/19 02:14:48;;;;;;;10.90;5.13;;;;;;;;;;6199460;28;20269;-78
2022/07/19 02:17:48;;;;;;;15.13;7.07;;;;;;;;;;6199794;28;20077;-78
2022/07/19 02:20:48;;;;;;;9.77;5.03;;;;;;;;;;6199414;28;20081;-78
2022/07/19 02:23:49;;;;;;;10.20;4.70;;;;;;;;;;6191567;28;20289;-78
2022/07/19 02:26:49;;;;;;;12.25;4.90;;;;;;;;;;6197768;28;20950;-78
2022/07/19 02:29:49;;;;;;;13.33;5.30;;;;;;;;;;6201282;28;20483;-78
2022/07/19 02:32:49;;;;;;;10.77;4.22;;;;;;;;;;6202401;28;20120;-78
2022/07/19 02:35:50;;;;;;;13.10;5.68;;;;;;;;;;6198278;28;20044;-78
2022/07/19 02:38:50;;;;;;;11.73;4.90;;;;;;;;;;6199937;28;20018;-78
2022/07/19 02:41:50;;;;;;;18.65;6.70;;;;;;;;;;6200342;28;20321;-78
2022/07/19 02:44:50;;;;;;;11.20;5.53;;;;;;;;;;6195507;28;20753;-78
2022/07/19 02:47:50;;;;;;;13.67;6.03;;;;;;;;;;6215819;28;20721;-78
2022/07/19 02:50:51;;;;;;;11.13;6.43;;;;;;;;;;6198411;28;20270;-78
2022/07/19 02:53:51;;;;;;;11.75;5.93;;;;;;;;;;6198709;28;20483;-78
2022/07/19 02:56:51;;;;;;;11.23;5.63;;;;;;;;;;6197394;28;20030;-78
2022/07/19 02:59:51;;;;;;;10.85;5.88;;;;;;;;;;6193878;28;20019;-78
2022/07/19 03:02:52;;;;;;;12.07;6.80;;;;;;;;;;6198133;28;20030;-78
2022/07/19 03:05:52;;;;;;;15.88;7.68;;;;;;;;;;6199255;28;20026;-78
2022/07/19 03:08:52;;;;;;;14.47;7.33;;;;;;;;;;6212229;28;20083;-78
2022/07/19 03:11:52;;;;;;;19.42;7.13;;;;;;;;;;6197711;28;20072;-78
2022/07/19 03:14:52;;;;;;;11.40;6.87;;;;;;;;;;6197539;28;20022;-78
2022/07/19 03:17:53;;;;;;;15.20;6.80;;;;;;;;;;6195071;28;20292;-78
2022/07/19 03:20:55;;;;;;;12.50;5.53;;;;;;;;;;6197787;28;20266;-78
2022/07/19 03:23:55;;;;;;;;;;;;;;;;;;6196713;28;20033;-77
2022/07/19 03:26:55;;;;;;;10.73;6.90;;;;;;;;;;6198072;28;19961;-77
2022/07/19 03:29:55;;;;;;;11.93;5.67;;;;;;;;;;6212147;28;20549;-77
2022/07/19 03:32:55;;;;;;;8.43;5.73;;;;;;;;;;6212464;28;20077;-78
2022/07/19 03:35:56;;;;;;;8.87;5.53;;;;;;;;;;6195928;28;20281;-78
2022/07/19 03:38:56;;;;;;;16.37;6.53;;;;;;;;;;6192187;28;20337;-78
2022/07/19 03:41:56;;;;;;;16.35;6.43;;;;;;;;;;6202315;28;20268;-78
2022/07/19 03:44:56;;;;;;;13.03;5.57;;;;;;;;;;6197219;28;20083;-78
2022/07/19 03:47:57;;;;;;;10.52;5.63;;;;;;;;;;6212735;28;20407;-78
2022/07/19 03:50:57;;;;;;;14.60;6.00;;;;;;;;;;6195821;28;20053;-78
2022/07/19 03:53:57;;;;;;;11.73;5.47;;;;;;;;;;6196580;28;20254;-78
2022/07/19 03:56:57;;;;;;;11.35;5.93;;;;;;;;;;6204782;28;20257;-78
2022/07/19 03:59:57;;;;;;;7.50;4.70;;;;;;;;;;6200965;28;20022;-78
2022/07/19 04:02:58;;;;;;;12.25;6.78;;;;;;;;;;6196995;28;20157;-78
2022/07/19 04:05:58;;;;;;;12.40;5.80;;;;;;;;;;6203485;28;20285;-79
2022/07/19 04:08:58;;;;;;;15.65;6.07;;;;;;;;;;6199584;28;20276;-78
2022/07/19 04:11:58;;;;;;;13.27;5.88;;;;;;;;;;6192576;28;20042;-78
2022/07/19 04:14:59;;;;;;;11.13;6.30;;;;;;;;;;6197445;28;20022;-78
2022/07/19 04:17:59;;;;;;;12.80;6.83;;;;;;;;;;6202279;28;20145;-78
2022/07/19 04:20:59;;;;;;;13.40;6.35;;;;;;;;;;6195917;28;20324;-78
2022/07/19 04:23:59;;;;;;;14.18;8.10;;;;;;;;;;6198503;28;20470;-78
2022/07/19 04:26:59;;;;;;;15.50;7.80;;;;;;;;;;6195765;28;20026;-78
2022/07/19 04:30:00;;;;;;;16.97;6.60;;;;;;;;;;6196707;28;20463;-78
2022/07/19 04:33:00;;;;;;;15.65;6.72;;;;;;;;;;6196457;28;20250;-78
2022/07/19 04:36:00;;;;;;;12.77;7.07;;;;;;;;;;6193930;28;20053;-78
2022/07/19 04:39:00;;;;;;;16.00;7.23;;;;;;;;;;6205063;28;20030;-78
2022/07/19 04:42:01;;;;;;;15.97;6.27;;;;;;;;;;6192815;28;20507;-78
2022/07/19 04:45:01;;;;;;;15.73;7.73;;;;;;;;;;6195271;28;20026;-78
2022/07/19 04:48:01;;;;;;;20.43;6.00;;;;;;;;;;6190043;28;20026;-78
2022/07/19 04:51:01;;;;;;;12.85;5.97;;;;;;;;;;6196070;28;20386;-78
2022/07/19 04:54:02;;;;;;;15.17;6.53;;;;;;;;;;6198301;28;20052;-78
2022/07/19 04:57:02;;;;;;;13.33;6.10;;;;;;;;;;6197017;28;20038;-78
2022/07/19 05:00:06;;;;;;;14.27;7.78;;;;;;;;;;6200126;28;20645;-77
2022/07/19 05:03:07;;;;;;;19.10;7.32;;;;;;;;;;6203674;28;20053;-78
2022/07/19 05:06:07;;;;;;;13.90;7.43;;;;;;;;;;6211812;28;20019;-78
2022/07/19 05:09:07;;;;;;;18.58;6.35;;;;;;;;;;6209882;28;20018;-78
2022/07/19 05:12:09;;;;;;;17.15;7.07;;;;;;;;;;6212638;28;20018;-77
2022/07/19 05:15:09;;;;;;;14.88;6.75;;;;;;;;;;6198406;28;20125;-77
2022/07/19 05:18:10;;;;;;;11.37;5.80;;;;;;;;;;6208347;28;20030;-77
2022/07/19 05:21:10;;;;;;;12.97;5.60;;;;;;;;;;6206527;28;20026;-78
2022/07/19 05:24:10;;;;;;;14.07;5.23;;;;;;;;;;6209086;28;20490;-77
2022/07/19 05:27:10;;;;;;;13.23;6.50;;;;;;;;;;6206033;28;20029;-78
2022/07/19 05:30:11;;;;;;;16.33;6.13;;;;;;;;;;6202628;28;20113;-77
2022/07/19 05:33:12;;;;;;;10.05;4.80;;;;;;;;;;6200960;28;20043;-78
2022/07/19 05:36:12;;;;;;;12.33;5.70;;;;;;;;;;6212845;28;20388;-77
2022/07/19 05:39:12;;;;;;;8.00;4.83;;;;;;;;;;6211612;28;20481;-77
2022/07/19 05:42:12;;;;;;;14.63;5.27;;;;;;;;;;6211752;28;20030;-78
2022/07/19 05:45:13;;;;;;;9.97;5.83;;;;;;;;;;6209452;28;20038;-78
2022/07/19 05:48:13;;;;;;;12.20;5.43;;;;;;;;;;6199007;28;20029;-78
2022/07/19 05:51:13;;;;;;;12.90;5.93;;;;;;;;;;6207934;28;20021;-77
2022/07/19 05:54:14;;;;;;;10.33;4.07;;;;;;;;;;6204275;28;20023;-78
2022/07/19 05:57:14;;;;;;;15.40;6.70;;;;;;;;;;6206332;28;20018;-77
2022/07/19 06:00:14;;;;;;;10.63;4.90;;;;;;;;;;6198663;28;20018;-77
2022/07/19 06:03:14;;;;;;;14.33;5.60;;;;;;;;;;6201107;28;20105;-78
2022/07/19 06:06:15;;;;;;;16.75;5.72;;;;;;;;;;6214488;28;20041;-78
2022/07/19 06:09:15;;;;;;;11.13;5.43;;;;;;;;;;6200257;28;20015;-78
2022/07/19 06:12:16;;;;;;;15.07;6.57;;;;;;;;;;6197836;28;20030;-78
2022/07/19 06:15:16;;;;;;;17.83;6.33;;;;;;;;;;6205540;28;20023;-78
2022/07/19 06:18:17;;;;;;;17.08;6.95;;;;;;;;;;6208499;28;20038;-78
2022/07/19 06:21:18;;;;;;;12.93;5.97;;;;;;;;;;6206441;28;20378;-78
2022/07/19 06:24:19;;;;;;;10.48;5.63;;;;;;;;;;6206767;28;20121;-78
2022/07/19 06:27:19;;;;;;;18.43;6.27;;;;;;;;;;6210266;28;20434;-78
2022/07/19 06:30:19;;;;;;;16.90;6.23;;;;;;;;;;6211982;28;20021;-77
2022/07/19 06:33:19;;;;;;;14.33;5.60;;;;;;;;;;6211555;28;20171;-77
2022/07/19 06:36:20;;;;;;;13.90;5.63;;;;;;;;;;6206682;28;20046;-77
2022/07/19 06:39:20;;;;;;;16.87;5.50;;;;;;;;;;6193703;28;20034;-77
2022/07/19 06:42:20;;;;;;;13.47;6.83;;;;;;;;;;6198396;28;20041;-77
2022/07/19 06:58:01;;;;;;;14.23;7.15;;;;;;;;;;829030;26;20346;-78
2022/07/19 07:01:02;;;;;;;17.87;6.40;;;;;;;;;;6163430;28;20031;-78
2022/07/19 07:04:03;;;;;;;14.68;6.10;;;;;;;;;;6185485;28;20024;-77
2022/07/19 07:07:03;;;;;;;15.18;5.78;;;;;;;;;;6162498;28;20498;-77
2022/07/19 07:10:06;;;;;;;16.00;5.97;;;;;;;;;;6173063;28;20492;-78
2022/07/19 07:13:06;;;;;;;13.32;5.68;;;;;;;;;;6172878;28;20094;-76
2022/07/19 07:16:06;;;;;;;12.20;5.18;;;;;;;;;;6163356;28;20029;-77
2022/07/19 07:19:07;;;;;;;12.60;5.70;;;;;;;;;;6155430;28;20037;-77
2022/07/19 07:22:07;;;;;;;21.27;5.97;;;;;;;;;;6155283;28;20021;-77
2022/07/19 07:25:07;;;;;;;13.20;4.90;;;;;;;;;;6164001;28;20011;-80
2022/07/19 07:28:07;;;;;;;10.80;4.70;;;;;;;;;;6197822;28;20011;-76
2022/07/19 07:31:07;;;;;;;13.23;6.17;;;;;;;;;;6179963;28;20110;-78
2022/07/19 07:34:13;;;;;;;12.77;4.70;;;;;;;;;;6183968;28;20069;-78
2022/07/19 07:37:14;;;;;;;10.95;4.43;;;;;;;;;;6183348;28;20662;-79
2022/07/19 07:40:14;;;;;;;12.40;4.10;;;;;;;;;;6172369;28;20022;-77
2022/07/19 07:43:14;;;;;;;14.33;4.33;;;;;;;;;;6159646;28;20284;-78
2022/07/19 07:46:16;;;;;;;12.50;4.95;;;;;;;;;;6158117;28;20329;-78
2022/07/19 07:49:17;;;;;;;15.20;4.47;;;;;;;;;;6168643;28;20018;-77
2022/07/19 07:52:17;;;;;;;12.85;4.50;;;;;;;;;;6169025;28;20912;-77
2022/07/19 07:55:17;;;;;;;13.43;4.95;;;;;;;;;;6155080;28;20466;-78
2022/07/19 07:58:18;;;;;;;8.63;3.80;;;;;;;;;;6175440;28;20043;-78
2022/07/19 08:01:18;;;;;;;13.15;4.05;;;;;;;;;;6165282;28;20742;-78
2022/07/19 08:04:18;;;;;;;9.23;4.00;;;;;;;;;;6173392;28;20034;-77
2022/07/19 08:07:19;;;;;;;6.83;3.00;;;;;;;;;;6156692;28;20022;-77
2022/07/19 08:10:20;;;;;;;10.37;3.30;;;;;;;;;;6147782;28;20019;-78
2022/07/19 08:13:21;;;;;;;10.27;3.47;;;;;;;;;;6179800;28;20031;-78
2022/07/19 08:16:21;;;;;;;11.73;3.47;;;;;;;;;;6160026;28;20125;-78
2022/07/19 08:19:22;;;;;;;4.53;3.22;;;;;;;;;;6163523;28;20030;-78
2022/07/19 08:22:22;;;;;;;9.37;3.23;;;;;;;;;;6177507;28;20628;-78
2022/07/19 08:25:22;;;;;;;12.87;4.07;;;;;;;;;;6172769;28;20027;-76
2022/07/19 08:28:22;;;;;;;12.73;3.43;;;;;;;;;;6166141;28;20034;-77
2022/07/19 08:31:23;;;;;;;5.70;2.95;;;;;;;;;;6180135;28;20030;-78
2022/07/19 08:34:23;;;;;;;8.65;3.72;;;;;;;;;;6174819;28;20051;-78
2022/07/19 08:37:43;;;;;;;7.27;3.30;;;;;;;;;;6205310;28;20471;-78
2022/07/19 08:40:45;;;;;;;5.47;2.45;;;;;;;;;;6158958;28;20088;-77
2022/07/19 08:43:47;;;;;;;5.03;2.30;;;;;;;;;;6178919;28;20077;-77
2022/07/19 08:46:48;;;;;;;7.25;2.72;;;;;;;;;;6181198;28;20031;-77
2022/07/19 08:49:48;;;;;;;6.07;2.63;;;;;;;;;;6185298;28;20023;-77
2022/07/19 08:52:48;;;;;;;7.32;2.30;;;;;;;;;;6169331;28;20453;-77
2022/07/19 08:55:49;;;;;;;8.23;2.90;;;;;;;;;;6174015;28;20019;-77
2022/07/19 08:58:49;;;;;;;11.43;2.30;;;;;;;;;;6178120;28;20450;-77
2022/07/19 09:01:50;;;;;;;5.57;2.30;;;;;;;;;;6181473;28;20046;-77
2022/07/19 09:05:00;;;;;;;4.03;2.35;;;;;;;;;;6184689;28;20071;-77
2022/07/19 09:08:06;;;;;;;5.18;2.75;;;;;;;;;;6179006;28;20010;-76
2022/07/19 09:11:16;;;;;;;9.02;3.05;;;;;;;;;;6170315;28;20019;-76
2022/07/19 09:14:19;;;;;;;8.50;2.97;;;;;;;;;;6145912;28;20091;-76
2022/07/19 09:17:20;;;;;;;4.65;2.10;;;;;;;;;;6180365;28;20053;-77
2022/07/19 09:20:27;;;;;;;6.05;2.88;;;;;;;;;;6172309;28;20030;-76
2022/07/19 09:23:27;;;;;;;12.75;2.88;;;;;;;;;;6166576;28;20035;-77
2022/07/19 09:26:27;;;;;;;6.50;3.00;;;;;;;;;;6164259;28;20031;-77
2022/07/19 09:29:28;;;;;;;11.57;3.50;;;;;;;;;;6168684;28;20011;-77
2022/07/19 09:32:28;;;;;;;10.00;2.63;;;;;;;;;;6146086;28;20019;-78
2022/07/19 09:35:38;;;;;;;9.90;3.47;;;;;;;;;;6165802;28;20025;-77
2022/07/19 09:38:42;;;;;;;6.22;2.70;;;;;;;;;;6148493;28;20265;-77
2022/07/19 09:41:54;;;;;;;4.50;2.85;;;;;;;;;;6149412;28;20023;-77
2022/07/19 09:44:59;;;;;;;4.55;2.33;;;;;;;;;;6165204;28;20038;-77
2022/07/19 09:48:00;;;;;;;12.13;2.70;;;;;;;;;;6151562;28;20066;-77
2022/07/19 09:51:00;;;;;;;8.07;3.30;;;;;;;;;;6168214;28;20033;-75
2022/07/19 09:54:02;;;;;;;4.67;2.57;;;;;;;;;;6166560;28;20023;-75
2022/07/19 09:57:02;;;;;;;8.35;2.53;;;;;;;;;;6168343;28;20038;-75
2022/07/19 10:00:04;;;;;;;9.27;2.73;;;;;;;;;;6170369;28;20074;-76
2022/07/19 10:03:05;;;;;;;6.93;3.33;;;;;;;;;;6145898;28;20306;-76
2022/07/19 10:06:05;;;;;;;7.20;2.50;;;;;;;;;;6149446;28;20039;-75
2022/07/19 10:09:07;;;;;;;7.95;2.50;;;;;;;;;;6153138;28;20619;-75
2022/07/19 10:12:07;;;;;;;8.13;2.80;;;;;;;;;;6156496;28;20502;-76
2022/07/19 10:15:08;;;;;;;5.57;3.13;;;;;;;;;;6155075;28;20015;-76
2022/07/19 10:18:10;;;;;;;4.70;2.67;;;;;;;;;;6160920;28;20023;-76
2022/07/19 10:21:11;;;;;;;8.23;3.42;;;;;;;;;;6165640;28;20430;-76
2022/07/19 10:24:11;;;;;;;9.93;3.65;;;;;;;;;;6170811;28;20026;-76
2022/07/19 10:27:12;;;;;;;7.72;2.75;;;;;;;;;;6155630;28;20086;-76
2022/07/19 10:30:12;;;;;;;7.82;3.08;;;;;;;;;;6175836;28;20019;-77
2022/07/19 10:33:26;;;;;;;6.10;2.70;;;;;;;;;;6159115;28;20026;-77
2022/07/19 10:36:38;;;;;;;6.22;2.70;;;;;;;;;;6172114;28;20031;-76
2022/07/19 10:39:39;;;;;;;8.68;3.00;;;;;;;;;;6180262;28;20018;-76
2022/07/19 10:43:08;;;;;;;9.95;2.42;;;;;;;;;;6159629;28;20038;-76
2022/07/19 10:46:10;;;;;;;6.22;2.70;;;;;;;;;;6145138;28;20030;-77
2022/07/19 10:49:10;;;;;;;7.15;3.30;;;;;;;;;;6153013;28;20014;-77
2022/07/19 10:52:28;;;;;;;4.43;2.63;;;;;;;;;;6166994;28;20099;-77
2022/07/19 10:55:29;;;;;;;9.18;2.97;;;;;;;;;;6155467;28;20054;-77
2022/07/19 10:58:45;;;;;;;9.23;2.60;;;;;;;;;;6163507;28;20456;-77
2022/07/19 11:01:54;;;;;;;4.93;2.60;;;;;;;;;;6148093;28;20085;-77
2022/07/19 11:04:56;;;;;;;10.00;2.78;;;;;;;;;;6175028;28;20030;-77
2022/07/19 11:07:57;;;;;;;9.75;2.85;;;;;;;;;;6173950;28;20045;-77
2022/07/19 11:11:18;;;;;;;6.85;3.08;;;;;;;;;;6155489;28;20027;-78
2022/07/19 11:14:19;;;;;;;4.63;2.70;;;;;;;;;;6186615;28;20030;-77
2022/07/19 11:17:20;;;;;;;8.82;2.33;;;;;;;;;;6164434;28;20018;-77
2022/07/19 11:20:27;;;;;;;10.43;2.70;;;;;;;;;;6157095;28;20801;-77
2022/07/19 11:23:28;;;;;;;5.93;2.50;;;;;;;;;;6169405;28;20080;-78
2022/07/19 11:26:34;;;;;;;6.85;2.50;;;;;;;;;;6153558;28;20027;-77
2022/07/19 11:29:53;;;;;;;7.75;2.47;;;;;;;;;;6178325;28;20086;-77
2022/07/19 11:32:56;;;;;;;9.38;2.65;;;;;;;;;;6172360;28;20430;-77
2022/07/19 11:35:57;;;;;;;4.07;2.45;;;;;;;;;;6187107;28;20029;-77
2022/07/19 11:39:02;;;;;;;5.95;3.13;;;;;;;;;;6189845;28;20023;-77
2022/07/19 11:42:02;;;;;;;5.25;2.53;;;;;;;;;;6188995;28;20046;-77
2022/07/19 11:45:09;;;;;;;9.35;2.58;;;;;;;;;;6173965;28;20026;-77
2022/07/19 11:48:09;;;;;;;5.18;2.70;;;;;;;;;;6156229;28;20023;-78
2022/07/19 11:51:10;;;;;;;6.53;2.30;;;;;;;;;;6153000;28;20019;-77
2022/07/19 11:54:10;;;;;;;6.72;2.75;;;;;;;;;;6166488;28;20037;-78
2022/07/19 11:57:24;;;;;;;8.20;2.40;;;;;;;;;;6156528;28;20027;-78
2022/07/19 12:00:24;;;;;;;9.65;2.83;;;;;;;;;;6163799;28;20055;-78
2022/07/19 12:03:24;;;;;;;3.63;2.20;;;;;;;;;;6155074;28;20035;-75
2022/07/19 12:06:54;;;;;;;4.30;2.10;;;;;;;;;;6165141;28;20499;-76
2022/07/19 12:09:55;;;;;;;5.93;2.22;;;;;;;;;;6129454;28;20034;-75
2022/07/19 12:12:55;;;;;;;9.37;2.90;;;;;;;;;;6153322;28;20022;-75
2022/07/19 12:15:56;;;;;;;5.53;2.43;;;;;;;;;;6164340;28;20082;-77
2022/07/19 12:18:57;;;;;;;7.38;2.25;;;;;;;;;;6187991;28;20521;-77
2022/07/19 12:21:57;;;;;;;8.15;2.60;;;;;;;;;;6172725;28;20038;-77
2022/07/19 12:24:57;;;;;;;5.00;2.37;;;;;;;;;;6176436;28;20026;-77
2022/07/19 12:27:58;;;;;;;8.33;2.47;;;;;;;;;;6173203;28;20552;-77
2022/07/19 12:31:05;;;;;;;6.03;2.28;;;;;;;;;;6168814;28;20018;-77
2022/07/19 12:34:05;;;;;;;6.47;2.67;;;;;;;;;;6193905;28;20019;-77
2022/07/19 12:37:45;;;;;;;5.35;2.28;;;;;;;;;;6167203;28;20034;-77
2022/07/19 12:40:46;;;;;;;9.25;2.65;;;;;;;;;;6045517;29;20029;-76
2022/07/19 12:43:46;;;;;;;6.68;2.80;;;;;;;;;;6077174;29;20084;-77
2022/07/19 12:46:47;;;;;;;7.80;2.50;;;;;;;;;;6152926;28;20030;-77
2022/07/19 12:49:47;;;;;;;5.67;2.53;;;;;;;;;;6190351;28;20077;-78
2022/07/19 12:52:48;;;;;;;5.28;2.28;;;;;;;;;;6185147;28;20337;-77
2022/07/19 12:55:50;;;;;;;5.63;2.30;;;;;;;;;;6188835;28;20022;-76
2022/07/19 13:02:23;;;;;;;3.50;1.90;;;;;;;;;;6173473;28;20113;-78
2022/07/19 13:05:23;;;;;;;7.07;3.27;;;;;;;;;;6171025;28;20033;-76
2022/07/19 13:08:24;;;;;;;5.40;2.42;;;;;;;;;;6183423;28;20025;-76
2022/07/19 13:11:26;;;;;;;6.47;2.63;;;;;;;;;;6170168;28;20031;-76
2022/07/19 13:14:28;;;;;;;5.63;2.42;;;;;;;;;;6180945;28;21094;-76
2022/07/19 13:17:28;;;;;;;4.18;2.40;;;;;;;;;;6183091;28;20025;-78
2022/07/19 13:20:29;;;;;;;7.10;2.53;;;;;;;;;;6175866;28;20393;-77
2022/07/19 13:23:29;;;;;;;9.27;2.90;;;;;;;;;;6182088;28;20442;-77
2022/07/19 13:26:29;;;;;;;4.90;2.60;;;;;;;;;;6169599;28;20029;-76
2022/07/19 13:29:29;;;;;;;5.53;2.53;;;;;;;;;;6195095;28;20042;-78
2022/07/19 13:32:29;;;;;;;4.23;2.30;;;;;;;;;;6173135;28;20081;-77
2022/07/19 13:35:30;;;;;;;5.78;2.63;;;;;;;;;;6183006;28;20015;-77
2022/07/19 13:38:30;;;;;;;10.35;2.35;;;;;;;;;;6185152;28;20086;-78
2022/07/19 13:41:30;;;;;;;5.40;2.37;;;;;;;;;;6167582;28;20031;-78
2022/07/19 13:44:31;;;;;;;5.17;1.87;;;;;;;;;;6166091;28;20034;-77
2022/07/19 13:47:33;;;;;;;9.47;2.43;;;;;;;;;;6161562;28;20027;-77
2022/07/19 13:50:33;;;;;;;9.50;2.50;;;;;;;;;;6173396;28;20015;-77
2022/07/19 13:53:38;;;;;;;7.60;2.77;;;;;;;;;;6166857;28;20042;-78
2022/07/19 13:56:38;;;;;;;3.53;2.00;;;;;;;;;;6178876;28;20019;-76
2022/07/19 13:59:38;;;;;;;9.27;2.30;;;;;;;;;;6184674;28;20473;-78
2022/07/19 14:02:39;;;;;;;8.10;2.50;;;;;;;;;;6167599;28;20023;-77
2022/07/19 14:05:40;;;;;;;4.80;2.10;;;;;;;;;;6156993;28;20029;-77
2022/07/19 14:08:41;;;;;;;2.97;2.10;;;;;;;;;;6167435;28;20027;-76
2022/07/19 14:11:42;;;;;;;3.45;2.25;;;;;;;;;;6179019;28;20027;-76
2022/07/19 14:14:43;;;;;;;9.90;2.50;;;;;;;;;;6165444;28;20485;-77
2022/07/19 14:17:43;;;;;;;4.57;2.33;;;;;;;;;;6165469;28;20122;-76
2022/07/19 14:20:43;;;;;;;4.38;2.17;;;;;;;;;;6172527;28;20098;-78
2022/07/19 14:23:44;;;;;;;3.87;2.50;;;;;;;;;;6180309;28;20023;-77
2022/07/19 14:26:44;;;;;;;8.23;3.00;;;;;;;;;;6178613;28;20022;-77
2022/07/19 14:29:44;;;;;;;1.83;1.53;;;;;;;;;;6174989;28;20011;-76
2022/07/19 14:32:44;;;;;;;2.95;2.33;;;;;;;;;;6172342;28;20069;-76
2022/07/19 14:35:45;;;;;;;4.03;1.93;;;;;;;;;;6165961;28;20028;-76
2022/07/19 14:38:45;;;;;;;4.37;2.27;;;;;;;;;;6150532;28;20502;-76
2022/07/19 14:41:45;;;;;;;5.47;2.30;;;;;;;;;;6144788;28;20066;-76
2022/07/19 14:44:45;;;;;;;3.23;2.30;;;;;;;;;;6158598;28;20374;-77
2022/07/19 14:47:46;;;;;;;5.90;2.70;;;;;;;;;;6166175;28;20042;-77
2022/07/19 14:50:46;;;;;;;5.70;2.87;;;;;;;;;;6162861;28;20467;-77
2022/07/19 14:53:46;;;;;;;4.83;2.03;;;;;;;;;;6160443;28;20014;-77
2022/07/19 14:56:46;;;;;;;7.60;2.70;;;;;;;;;;6148330;28;20054;-77
2022/07/19 14:59:46;;;;;;;5.50;2.00;;;;;;;;;;6166044;28;20070;-78
2022/07/19 15:02:47;;;;;;;6.13;2.50;;;;;;;;;;6155083;28;20024;-76
2022/07/19 15:05:47;;;;;;;3.37;2.07;;;;;;;;;;6148136;28;20031;-77
2022/07/19 15:08:47;;;;;;;5.33;2.23;;;;;;;;;;6149774;28;20046;-76
2022/07/19 15:11:47;;;;;;;5.10;2.23;;;;;;;;;;6145249;28;20511;-77
2022/07/19 15:14:49;;;;;;;5.32;3.10;;;;;;;;;;6147838;28;20074;-77
2022/07/19 15:17:50;;;;;;;5.78;2.83;;;;;;;;;;6151783;28;20468;-77
2022/07/19 15:20:50;;;;;;;7.03;2.50;;;;;;;;;;6149936;28;20027;-77
2022/07/19 15:23:50;;;;;;;3.13;2.10;;;;;;;;;;6159963;28;20092;-77
2022/07/19 15:26:50;;;;;;;6.97;2.53;;;;;;;;;;6160410;28;20019;-76
2022/07/19 15:29:54;;;;;;;7.40;2.00;;;;;;;;;;6143314;28;20485;-77
2022/07/19 15:32:54;;;;;;;7.80;2.28;;;;;;;;;;6152111;28;20078;-77
2022/07/19 15:35:54;;;;;;;6.85;3.20;;;;;;;;;;6163992;28;20018;-77
2022/07/19 15:38:55;;;;;;;7.13;2.38;;;;;;;;;;6162266;28;20019;-77
2022/07/19 15:41:55;;;;;;;5.67;2.27;;;;;;;;;;6153034;28;20038;-77
2022/07/19 15:44:55;;;;;;;4.97;2.43;;;;;;;;;;6145864;28;20346;-77
2022/07/19 15:47:55;;;;;;;9.70;2.50;;;;;;;;;;6142697;28;20028;-77
2022/07/19 15:50:56;;;;;;;8.23;3.07;;;;;;;;;;6149487;28;20016;-77
2022/07/19 15:53:57;;;;;;;7.83;2.00;;;;;;;;;;6148048;28;20019;-76
2022/07/19 15:56:57;;;;;;;7.57;2.63;;;;;;;;;;6147962;28;20326;-77
2022/07/19 15:59:57;;;;;;;5.73;2.63;;;;;;;;;;6151414;28;20039;-77
2022/07/19 16:02:57;;;;;;;6.10;2.25;;;;;;;;;;6151922;28;20169;-76
2022/07/19 16:05:58;;;;;;;6.40;2.80;;;;;;;;;;6158050;28;20027;-77
2022/07/19 16:08:58;;;;;;;4.50;2.60;;;;;;;;;;6164479;28;20286;-77
2022/07/19 16:11:58;;;;;;;5.30;2.40;;;;;;;;;;6158656;28;20050;-77
2022/07/19 16:14:58;;;;;;;5.43;2.50;;;;;;;;;;6156522;28;20107;-76
2022/07/19 16:17:59;;;;;;;4.17;2.50;;;;;;;;;;6161785;28;20014;-77
2022/07/19 16:21:01;;;;;;;5.40;2.10;;;;;;;;;;6163021;28;20461;-77
2022/07/19 16:24:01;;;;;;;5.68;3.17;;;;;;;;;;6178518;28;20027;-77
2022/07/19 16:27:02;;;;;;;6.57;2.70;;;;;;;;;;6162725;28;20030;-77
2022/07/19 16:30:03;;;;;;;5.50;2.07;;;;;;;;;;6186006;28;20021;-77
2022/07/19 16:33:03;;;;;;;8.38;2.90;;;;;;;;;;6154135;28;20255;-78
2022/07/19 16:36:03;;;;;;;5.47;2.60;;;;;;;;;;6176393;28;20026;-77
2022/07/19 16:39:03;;;;;;;8.17;2.27;;;;;;;;;;6177914;28;20033;-77
2022/07/19 16:42:04;;;;;;;5.97;2.10;;;;;;;;;;6173107;28;20256;-77
2022/07/19 16:45:04;;;;;;;6.28;2.50;;;;;;;;;;6186500;28;20015;-77
2022/07/19 16:48:05;;;;;;;3.08;2.30;;;;;;;;;;6169721;28;20084;-77
2022/07/19 16:51:05;;;;;;;7.47;2.90;;;;;;;;;;6182086;28;20486;-77
2022/07/19 16:54:06;;;;;;;5.23;2.83;;;;;;;;;;6158075;28;20014;-78
2022/07/19 16:57:06;;;;;;;5.77;2.90;;;;;;;;;;6158205;28;20026;-77
2022/07/19 17:00:07;;;;;;;7.93;2.27;;;;;;;;;;6162065;28;20050;-77
2022/07/19 17:03:07;;;;;;;7.43;3.00;;;;;;;;;;6164338;28;20014;-78
2022/07/19 17:06:07;;;;;;;7.23;2.53;;;;;;;;;;6155245;28;20465;-77
2022/07/19 17:09:08;;;;;;;6.50;2.73;;;;;;;;;;6169215;28;20019;-78
2022/07/19 17:12:08;;;;;;;5.07;2.43;;;;;;;;;;6168588;28;20133;-77
2022/07/19 17:15:08;;;;;;;;;;;;;;;;;;6140444;28;20027;-77
2022/07/19 17:18:08;;;;;;;5.50;2.83;;;;;;;;;;6154553;28;19917;-77
2022/07/19 17:21:08;;;;;;;;;;;;;;;;;;6164681;28;20390;-77
2022/07/19 17:24:09;;;;;;;6.10;3.00;;;;;;;;;;6153144;28;19914;-77
2022/07/19 17:27:09;;;;;;;;;;;;;;;;;;6162949;28;20032;-77
2022/07/19 17:30:09;;;;;;;6.20;2.78;;;;;;;;;;6152446;28;20891;-78
2022/07/19 17:33:09;;;;;;;;;;;;;;;;;;6164488;28;20007;-77
2022/07/19 17:36:09;;;;;;;9.85;3.03;;;;;;;;;;6162341;28;19914;-77
2022/07/19 17:39:11;;;;;;;;;;;;;;;;;;6166029;28;20027;-77
2022/07/19 17:42:11;;;;;;;6.15;2.80;;;;;;;;;;6162845;28;19964;-77
2022/07/19 17:45:11;;;;;;;;;;;;;;;;;;6140623;28;20459;-77
2022/07/19 17:48:12;;;;;;;7.90;3.67;;;;;;;;;;6155449;28;19918;-77
2022/07/19 17:51:12;;;;;;;;;;;;;;;;;;6163465;28;20375;-77
2022/07/19 17:54:12;;;;;;;6.07;2.58;;;;;;;;;;6147022;28;19914;-77
2022/07/19 17:57:12;;;;;;;6.27;2.90;;;;;;;;;;6152863;28;20085;-78
2022/07/19 18:00:13;;;;;;;5.23;2.50;;;;;;;;;;6144163;28;20119;-77
2022/07/19 18:03:13;;;;;;;6.07;2.65;;;;;;;;;;6166357;28;20030;-77
2022/07/19 18:06:13;;;;;;;6.20;3.00;;;;;;;;;;6165608;28;20104;-77
2022/07/19 18:09:14;;;;;;;7.93;3.77;;;;;;;;;;6147567;28;20022;-77
2022/07/19 18:12:14;;;;;;;11.57;4.87;;;;;;;;;;6162470;28;20055;-77
2022/07/19 18:15:15;;;;;;;7.80;2.97;;;;;;;;;;6139985;28;20815;-77
2022/07/19 18:18:15;;;;;;;7.85;2.80;;;;;;;;;;6148525;28;20027;-77
2022/07/19 18:21:19;;;;;;;7.50;3.10;;;;;;;;;;6146430;28;20046;-77